Time;durP1;ratioP1;P1;durP2;ratioP2;P2;SDS_P1;SDS_P2;PMS_P1;PMS_P2;Temp;Humidity;BMP_temperature;BMP_pressure;BME280_temperature;BME280_humidity;BME280_pressure;Samples;Min_cycle;Max_cycle;Signal;HPM_P1;HPM_P2
2022/12/06 00:02:05;;;;;;;;;;;2.90;99.90;;;;;;5013943;28;20000;-60
2022/12/06 00:04:30;;;;;;;;;;;2.90;99.90;;;;;;5022902;28;19914;-56
2022/12/06 00:06:57;;;;;;;;;;;2.90;99.90;;;;;;5020987;28;19913;-60
2022/12/06 00:09:23;;;;;;;;;;;2.90;99.90;;;;;;5007646;28;19964;-60
2022/12/06 00:11:49;;;;;;;;;;;2.90;99.90;;;;;;5013975;28;19925;-60
2022/12/06 00:14:15;;;;;;;;;;;2.90;99.90;;;;;;5027165;28;19963;-61
2022/12/06 00:16:40;;;;;;;;;;;2.90;99.90;;;;;;5018092;28;19913;-60
2022/12/06 00:19:06;;;;;;;;;;;2.90;99.90;;;;;;5019699;28;19909;-60
2022/12/06 00:21:33;;;;;;;;;;;2.90;99.90;;;;;;5021523;28;20280;-60
2022/12/06 00:24:03;;;;;;;;;;;2.90;99.90;;;;;;5002663;28;19913;-60
2022/12/06 00:26:29;;;;;;;;;;;2.90;99.90;;;;;;5019470;28;19917;-58
2022/12/06 00:28:55;;;;;;;;;;;2.90;99.90;;;;;;5020407;28;19913;-60
2022/12/06 00:31:22;;;;;;;;;;;2.90;99.90;;;;;;5018081;28;19949;-60
2022/12/06 00:33:48;;;;;;;;;;;3.00;99.90;;;;;;5021321;28;19914;-60
2022/12/06 00:36:18;;;;;;;;;;;2.90;99.90;;;;;;5021021;28;19917;-61
2022/12/06 00:38:44;;;;;;;;;;;2.90;99.90;;;;;;5021600;28;19963;-60
2022/12/06 00:41:11;;;;;;;;;;;3.00;99.90;;;;;;5017503;28;19918;-60
2022/12/06 00:43:37;;;;;;;;;;;3.00;99.90;;;;;;5013958;28;19917;-60
2022/12/06 00:46:04;;;;;;;;;;;3.00;99.90;;;;;;5011019;28;20295;-60
2022/12/06 00:48:29;;;;;;;;;;;3.00;99.90;;;;;;5016288;28;19913;-60
2022/12/06 00:50:55;;;;;;;;;;;3.00;99.90;;;;;;5020973;28;19920;-60
2022/12/06 00:53:20;;;;;;;;;;;3.00;99.90;;;;;;5018547;28;19922;-59
2022/12/06 00:55:46;;;;;;;;;;;3.00;99.90;;;;;;5022469;28;19956;-60
2022/12/06 00:58:12;;;;;;;;;;;3.00;99.90;;;;;;5021150;28;19923;-59
2022/12/06 01:00:38;;;;;;;;;;;3.10;99.90;;;;;;5016075;28;19917;-60
2022/12/06 01:03:03;;;;;;;;;;;3.10;99.90;;;;;;5017872;28;19983;-60
2022/12/06 01:05:29;;;;;;;;;;;3.10;99.90;;;;;;5018285;28;20315;-60
2022/12/06 01:07:55;;;;;;;;;;;3.10;99.90;;;;;;5014745;28;19921;-60
2022/12/06 01:10:20;;;;;;;;;;;3.10;99.90;;;;;;5005500;28;20015;-60
2022/12/06 01:12:46;;;;;;;;;;;3.10;99.90;;;;;;5011763;28;20047;-60
2022/12/06 01:15:11;;;;;;;;;;;3.10;99.90;;;;;;5024612;28;19940;-60
2022/12/06 01:17:37;;;;;;;;;;;3.20;99.90;;;;;;5028410;28;19913;-60
2022/12/06 01:20:03;;;;;;;;;;;3.20;99.90;;;;;;5022446;28;19919;-58
2022/12/06 01:22:28;;;;;;;;;;;3.20;99.90;;;;;;5005245;28;19959;-60
2022/12/06 01:24:54;;;;;;;;;;;3.20;99.90;;;;;;5021145;28;19952;-59
2022/12/06 01:27:19;;;;;;;;;;;3.20;99.90;;;;;;5028729;28;19913;-59
2022/12/06 01:29:45;;;;;;;;;;;3.30;99.90;;;;;;5022511;28;19913;-58
2022/12/06 01:32:10;;;;;;;;;;;3.30;99.90;;;;;;5028213;28;19921;-60
2022/12/06 01:34:36;;;;;;;;;;;3.30;99.90;;;;;;5022142;28;19967;-60
2022/12/06 01:37:02;;;;;;;;;;;3.30;99.90;;;;;;5020831;28;19914;-58
2022/12/06 01:39:27;;;;;;;;;;;3.40;99.90;;;;;;5020760;28;20200;-59
2022/12/06 01:41:52;;;;;;;;;;;3.40;99.90;;;;;;5024572;28;19923;-57
2022/12/06 01:44:36;;;;;;;;;;;3.40;99.90;;;;;;5024003;28;19917;-60
2022/12/06 01:47:02;;;;;;;;;;;3.40;99.90;;;;;;5028209;28;19909;-60
2022/12/06 01:49:30;;;;;;;;;;;3.40;99.90;;;;;;5022604;28;20063;-61
2022/12/06 01:52:00;;;;;;;;;;;3.50;99.90;;;;;;5020382;28;19909;-60
2022/12/06 01:54:26;;;;;;;;;;;3.50;99.90;;;;;;5026310;28;19909;-59
2022/12/06 01:56:52;;;;;;;;;;;3.50;99.90;;;;;;5022122;28;20556;-58
2022/12/06 01:59:18;;;;;;;;;;;3.50;99.90;;;;;;5025978;28;19917;-60
2022/12/06 02:01:44;;;;;;;;;;;3.50;99.90;;;;;;5011661;28;19913;-57
2022/12/06 02:04:10;;;;;;;;;;;3.50;99.90;;;;;;5021635;28;19932;-60
2022/12/06 02:06:35;;;;;;;;;;;3.60;99.90;;;;;;5021378;28;20380;-60
2022/12/06 02:09:03;;;;;;;;;;;3.60;99.90;;;;;;5021079;28;19917;-58
2022/12/06 02:11:28;;;;;;;;;;;3.60;99.90;;;;;;5026656;28;19916;-59
2022/12/06 02:13:54;;;;;;;;;;;3.70;99.90;;;;;;5022623;28;20287;-60
2022/12/06 02:16:38;;;;;;;;;;;3.60;99.90;;;;;;5027123;28;19936;-60
2022/12/06 02:19:14;;;;;;;;;;;3.70;99.90;;;;;;5024378;28;19913;-61
2022/12/06 02:21:48;;;;;;;;;;;3.60;99.90;;;;;;5057079;23;19925;-56
2022/12/06 02:24:29;;;;;;;;;;;3.60;99.90;;;;;;5053698;28;19920;-59
2022/12/06 02:27:00;;;;;;;;;;;3.70;99.90;;;;;;5052179;28;19913;-60
2022/12/06 02:29:28;;;;;;;;;;;3.70;99.90;;;;;;5052666;28;19913;-59
2022/12/06 02:32:05;;;;;;;;;;;3.70;99.90;;;;;;5050990;28;19913;-58
2022/12/06 02:34:43;;;;;;;;;;;3.70;99.90;;;;;;5043187;28;19913;-58
2022/12/06 02:37:20;;;;;;;;;;;3.70;99.90;;;;;;5054636;28;20350;-59
2022/12/06 02:39:56;;;;;;;;;;;3.70;99.90;;;;;;5052701;28;19917;-60
2022/12/06 02:42:23;;;;;;;;;;;3.70;99.90;;;;;;5039475;28;19917;-60
2022/12/06 02:44:52;;;;;;;;;;;3.70;99.90;;;;;;5047584;28;19916;-60
2022/12/06 02:47:19;;;;;;;;;;;3.70;99.90;;;;;;5050915;28;19913;-59
2022/12/06 02:49:48;;;;;;;;;;;3.70;99.90;;;;;;5046217;28;19913;-59
2022/12/06 02:52:15;;;;;;;;;;;3.70;99.90;;;;;;5050087;28;20323;-57
2022/12/06 02:54:43;;;;;;;;;;;3.70;99.90;;;;;;5050767;28;19913;-59
2022/12/06 02:57:08;;;;;;;;;;;3.70;99.90;;;;;;5041376;28;19912;-59
2022/12/06 02:59:34;;;;;;;;;;;3.70;99.90;;;;;;5051997;28;19970;-59
2022/12/06 03:02:01;;;;;;;;;;;3.80;99.90;;;;;;5052119;28;19917;-58
2022/12/06 03:04:45;;;;;;;;;;;3.80;99.90;;;;;;5052879;28;19913;-60
2022/12/06 03:07:16;;;;;;;;;;;3.80;99.90;;;;;;5056125;28;20587;-60
2022/12/06 03:10:00;;;;;;;;;;;3.80;99.90;;;;;;5052947;28;19979;-60
2022/12/06 03:12:49;;;;;;;;;;;3.80;99.90;;;;;;5043784;28;19908;-58
2022/12/06 03:15:34;;;;;;;;;;;3.80;99.90;;;;;;5054144;28;19913;-58
2022/12/06 03:18:18;;;;;;;;;;;3.80;99.90;;;;;;5040817;28;19924;-60
2022/12/06 03:20:57;;;;;;;;;;;3.80;99.90;;;;;;5048886;28;20378;-60
2022/12/06 03:23:28;;;;;;;;;;;3.80;99.90;;;;;;5043091;28;19963;-59
2022/12/06 03:25:56;;;;;;;;;;;3.80;99.90;;;;;;5046569;28;19920;-58
2022/12/06 03:28:22;;;;;;;;;;;3.70;99.90;;;;;;5052005;28;19916;-57
2022/12/06 03:30:50;;;;;;;;;;;3.80;99.90;;;;;;5049994;28;20314;-58
2022/12/06 03:33:17;;;;;;;;;;;3.70;99.90;;;;;;5052317;28;19909;-59
2022/12/06 03:35:44;;;;;;;;;;;3.70;99.90;;;;;;5027085;28;19917;-58
2022/12/06 03:38:11;;;;;;;;;;;3.70;99.90;;;;;;5052865;28;19909;-56
2022/12/06 03:40:38;;;;;;;;;;;3.70;99.90;;;;;;5035119;28;19924;-57
2022/12/06 03:43:04;;;;;;;;;;;3.80;99.90;;;;;;5040671;28;19908;-58
2022/12/06 03:45:35;;;;;;;;;;;3.80;99.90;;;;;;5043919;28;20295;-56
2022/12/06 03:48:11;;;;;;;;;;;3.80;99.90;;;;;;5053740;28;19915;-59
2022/12/06 03:50:42;;;;;;;;;;;3.70;99.90;;;;;;5043724;28;20364;-58
2022/12/06 03:53:08;;;;;;;;;;;3.70;99.90;;;;;;5044009;28;19917;-61
2022/12/06 03:55:33;;;;;;;;;;;3.70;99.90;;;;;;5035203;28;19939;-57
2022/12/06 03:57:59;;;;;;;;;;;3.80;99.90;;;;;;5049682;28;20000;-59
2022/12/06 04:00:24;;;;;;;;;;;3.70;99.90;;;;;;5053456;28;19920;-59
2022/12/06 04:02:50;;;;;;;;;;;3.70;99.90;;;;;;5050796;28;19909;-60
2022/12/06 04:05:15;;;;;;;;;;;3.70;99.90;;;;;;5054659;28;19908;-59
2022/12/06 04:07:41;;;;;;;;;;;3.70;99.90;;;;;;5051941;28;19909;-59
2022/12/06 04:10:06;;;;;;;;;;;3.70;99.90;;;;;;5050992;28;19912;-58
2022/12/06 04:15:17;;;;;;;;;;;3.70;99.90;;;;;;5048051;28;19966;-58
2022/12/06 04:20:27;;;;;;;;;;;3.70;99.90;;;;;;5048700;28;19920;-58
2022/12/06 04:23:05;;;;;;;;;;;3.70;99.90;;;;;;5049735;28;20039;-60
2022/12/06 04:25:31;;;;;;;;;;;3.60;99.90;;;;;;5049655;28;19921;-58
2022/12/06 04:38:53;;;;;;;;;;;3.70;99.90;;;;;;5046369;28;19919;-58
2022/12/06 04:44:04;;;;;;;;;;;3.70;99.90;;;;;;5049965;28;19920;-59
2022/12/06 04:46:29;;;;;;;;;;;3.70;99.90;;;;;;5042381;28;19917;-59
2022/12/06 04:48:55;;;;;;;;;;;3.70;99.90;;;;;;5050232;28;20243;-60
2022/12/06 04:51:21;;;;;;;;;;;3.60;99.90;;;;;;5041602;28;19921;-59
2022/12/06 04:53:46;;;;;;;;;;;3.60;99.90;;;;;;5044253;28;20022;-60
2022/12/06 04:56:12;;;;;;;;;;;3.60;99.90;;;;;;5047153;28;19908;-60
2022/12/06 04:58:37;;;;;;;;;;;3.70;99.90;;;;;;5049629;28;20306;-59
2022/12/06 05:01:03;;;;;;;;;;;3.70;99.90;;;;;;5051014;28;19921;-58
2022/12/06 05:03:28;;;;;;;;;;;3.70;99.90;;;;;;5049173;28;20019;-60
2022/12/06 05:05:54;;;;;;;;;;;3.70;99.90;;;;;;5049605;28;19913;-58
2022/12/06 05:08:19;;;;;;;;;;;3.70;99.90;;;;;;5048838;28;20347;-57
2022/12/06 05:10:45;;;;;;;;;;;3.70;99.90;;;;;;5040917;28;19983;-60
2022/12/06 05:13:11;;;;;;;;;;;3.70;99.90;;;;;;5051632;28;20375;-57
2022/12/06 05:15:36;;;;;;;;;;;3.70;99.90;;;;;;5050135;28;19962;-59
2022/12/06 05:18:02;;;;;;;;;;;3.70;99.90;;;;;;5050572;28;19935;-59
2022/12/06 05:20:27;;;;;;;;;;;3.70;99.90;;;;;;5049469;28;19998;-58
2022/12/06 05:22:53;;;;;;;;;;;3.70;99.90;;;;;;5053057;28;19913;-59
2022/12/06 05:25:18;;;;;;;;;;;3.70;99.90;;;;;;5052202;28;19909;-58
2022/12/06 05:27:44;;;;;;;;;;;3.70;99.90;;;;;;5049876;28;20000;-57
2022/12/06 05:30:09;;;;;;;;;;;3.70;99.90;;;;;;5045982;28;19915;-59
2022/12/06 05:32:36;;;;;;;;;;;3.70;99.90;;;;;;5060289;28;19920;-57
2022/12/06 05:35:02;;;;;;;;;;;3.70;99.90;;;;;;5040351;28;20002;-59
2022/12/06 05:37:27;;;;;;;;;;;3.70;99.90;;;;;;5044653;28;20020;-59
2022/12/06 05:39:53;;;;;;;;;;;3.70;99.90;;;;;;5048384;28;20310;-59
2022/12/06 05:42:18;;;;;;;;;;;3.70;99.90;;;;;;5048572;28;19917;-59
2022/12/06 05:44:44;;;;;;;;;;;3.70;99.90;;;;;;5048825;28;20345;-59
2022/12/06 05:47:09;;;;;;;;;;;3.70;99.90;;;;;;5048661;28;19936;-58
2022/12/06 05:49:35;;;;;;;;;;;3.70;99.90;;;;;;5050979;28;19909;-57
2022/12/06 05:52:00;;;;;;;;;;;3.70;99.90;;;;;;5049405;28;20004;-59
2022/12/06 05:54:25;;;;;;;;;;;3.70;99.90;;;;;;5050287;28;19913;-59
2022/12/06 05:56:51;;;;;;;;;;;3.70;99.90;;;;;;5050568;28;19913;-59
2022/12/06 05:59:16;;;;;;;;;;;3.70;99.90;;;;;;5054708;28;20403;-59
2022/12/06 06:01:42;;;;;;;;;;;3.70;99.90;;;;;;5051527;28;19913;-59
2022/12/06 06:04:08;;;;;;;;;;;3.70;99.90;;;;;;5054342;28;19916;-59
2022/12/06 06:06:33;;;;;;;;;;;3.70;99.90;;;;;;5051091;28;20335;-58
2022/12/06 06:08:59;;;;;;;;;;;3.70;99.90;;;;;;5052099;28;19913;-60
2022/12/06 06:11:25;;;;;;;;;;;3.60;99.90;;;;;;5050121;28;19912;-57
2022/12/06 06:13:53;;;;;;;;;;;3.60;99.90;;;;;;5056360;28;19913;-60
2022/12/06 06:16:19;;;;;;;;;;;3.60;99.90;;;;;;5053713;28;20339;-59
2022/12/06 06:18:45;;;;;;;;;;;3.60;99.90;;;;;;5046868;28;19964;-59
2022/12/06 06:21:10;;;;;;;;;;;3.60;99.90;;;;;;5054249;28;19956;-59
2022/12/06 06:23:36;;;;;;;;;;;3.60;99.90;;;;;;5051596;28;20035;-59
2022/12/06 06:26:05;;;;;;;;;;;3.60;99.90;;;;;;5047945;28;19916;-59
2022/12/06 06:28:30;;;;;;;;;;;3.60;99.90;;;;;;5051224;28;19920;-56
2022/12/06 06:30:56;;;;;;;;;;;3.60;99.90;;;;;;5054647;28;19912;-59
2022/12/06 06:33:21;;;;;;;;;;;3.60;99.90;;;;;;5049005;28;19913;-59
2022/12/06 06:35:47;;;;;;;;;;;3.60;99.90;;;;;;5051506;28;19923;-56
2022/12/06 06:38:12;;;;;;;;;;;3.60;99.90;;;;;;5051448;28;19913;-59
2022/12/06 06:40:37;;;;;;;;;;;3.60;99.90;;;;;;5051523;28;19984;-60
2022/12/06 06:43:19;;;;;;;;;;;3.50;99.90;;;;;;5054825;28;20345;-60
2022/12/06 06:45:44;;;;;;;;;;;3.50;99.90;;;;;;5050435;28;20289;-58
2022/12/06 06:48:10;;;;;;;;;;;3.50;99.90;;;;;;5055934;28;19913;-59
2022/12/06 06:50:35;;;;;;;;;;;3.50;99.90;;;;;;5049385;28;20303;-58
2022/12/06 06:53:01;;;;;;;;;;;3.50;99.90;;;;;;5056156;28;19913;-59
2022/12/06 06:55:29;;;;;;;;;;;3.50;99.90;;;;;;5054372;28;19915;-60
2022/12/06 06:57:54;;;;;;;;;;;3.50;99.90;;;;;;5032881;28;19916;-59
2022/12/06 07:00:20;;;;;;;;;;;3.50;99.90;;;;;;5055178;28;19908;-59
2022/12/06 07:02:45;;;;;;;;;;;3.50;99.90;;;;;;5050076;28;19916;-59
2022/12/06 07:05:11;;;;;;;;;;;3.50;99.90;;;;;;5055637;28;19964;-58
2022/12/06 07:07:36;;;;;;;;;;;3.50;99.90;;;;;;5052616;28;19939;-59
2022/12/06 07:10:02;;;;;;;;;;;3.50;99.90;;;;;;5051727;28;20307;-60
2022/12/06 07:12:27;;;;;;;;;;;3.50;99.90;;;;;;5050665;28;19916;-58
2022/12/06 07:14:52;;;;;;;;;;;3.50;99.90;;;;;;5055539;28;19963;-60
2022/12/06 07:17:18;;;;;;;;;;;3.50;99.90;;;;;;5052354;28;19917;-59
2022/12/06 07:19:43;;;;;;;;;;;3.50;99.90;;;;;;5056178;28;20325;-60
2022/12/06 07:22:09;;;;;;;;;;;3.50;99.90;;;;;;5051630;28;19923;-59
2022/12/06 07:24:34;;;;;;;;;;;3.50;99.90;;;;;;5049502;28;19916;-58
2022/12/06 07:27:00;;;;;;;;;;;3.40;99.90;;;;;;5048111;28;20383;-59
2022/12/06 07:29:25;;;;;;;;;;;3.40;99.90;;;;;;5050650;28;19962;-58
2022/12/06 07:31:51;;;;;;;;;;;3.40;99.90;;;;;;5046067;28;19915;-59
2022/12/06 07:34:16;;;;;;;;;;;3.40;99.90;;;;;;5052395;28;19919;-59
2022/12/06 07:36:42;;;;;;;;;;;3.40;99.90;;;;;;5031872;28;20363;-59
2022/12/06 07:39:07;;;;;;;;;;;3.40;99.90;;;;;;5049127;28;19919;-60
2022/12/06 07:47:01;;;;;;;;;;;3.40;99.90;;;;;;5051464;28;20029;-60
2022/12/06 07:49:27;;;;;;;;;;;3.40;99.90;;;;;;5055186;28;19917;-60
2022/12/06 07:51:53;;;;;;;;;;;3.40;99.90;;;;;;5049919;28;19913;-61
2022/12/06 07:54:19;;;;;;;;;;;3.40;99.90;;;;;;5045324;28;19909;-59
2022/12/06 07:56:45;;;;;;;;;;;3.40;99.90;;;;;;5049805;28;19948;-59
2022/12/06 07:59:10;;;;;;;;;;;3.40;99.90;;;;;;5052638;28;20044;-60
2022/12/06 08:01:36;;;;;;;;;;;3.40;99.90;;;;;;5049959;28;20000;-60
2022/12/06 08:04:02;;;;;;;;;;;3.40;99.90;;;;;;5048472;28;19917;-58
2022/12/06 08:06:29;;;;;;;;;;;3.40;99.90;;;;;;5039814;28;19920;-58
2022/12/06 08:08:54;;;;;;;;;;;3.40;99.90;;;;;;5049094;28;20012;-60
2022/12/06 08:11:21;;;;;;;;;;;3.40;99.90;;;;;;5047414;28;20003;-59
2022/12/06 08:13:47;;;;;;;;;;;3.40;99.90;;;;;;5040704;28;19967;-59
2022/12/06 08:16:12;;;;;;;;;;;3.40;99.90;;;;;;5050835;28;19916;-60
2022/12/06 08:18:39;;;;;;;;;;;3.40;99.90;;;;;;5053239;28;19924;-60
2022/12/06 08:21:05;;;;;;;;;;;3.40;99.90;;;;;;5051434;28;19924;-60
2022/12/06 08:23:30;;;;;;;;;;;3.40;99.90;;;;;;5038358;22;19952;-61
2022/12/06 08:26:04;;;;;;;;;;;3.40;99.90;;;;;;5018606;28;19909;-61
2022/12/06 08:28:29;;;;;;;;;;;3.30;99.90;;;;;;5012964;28;20371;-62
2022/12/06 08:30:55;;;;;;;;;;;3.40;99.90;;;;;;5018920;28;19948;-62
2022/12/06 08:33:23;;;;;;;;;;;3.30;99.90;;;;;;4995225;28;19914;-62
2022/12/06 08:35:49;;;;;;;;;;;3.30;99.90;;;;;;4997623;28;19910;-62
2022/12/06 08:38:14;;;;;;;;;;;3.30;99.90;;;;;;5000987;28;20553;-61
2022/12/06 08:40:40;;;;;;;;;;;3.30;99.90;;;;;;4997041;28;19918;-62
2022/12/06 08:43:05;;;;;;;;;;;3.30;99.90;;;;;;4999501;28;19929;-62
2022/12/06 08:45:31;;;;;;;;;;;3.30;99.90;;;;;;4995179;28;19917;-62
2022/12/06 08:47:57;;;;;;;;;;;3.30;99.90;;;;;;5000204;28;19916;-62
2022/12/06 08:50:22;;;;;;;;;;;3.30;99.90;;;;;;5001651;28;19981;-62
2022/12/06 08:52:48;;;;;;;;;;;3.30;99.90;;;;;;5016236;28;20005;-62
2022/12/06 08:55:13;;;;;;;;;;;3.30;99.90;;;;;;5001370;28;20316;-62
2022/12/06 08:57:39;;;;;;;;;;;3.30;99.90;;;;;;5001145;28;19963;-62
2022/12/06 09:00:05;;;;;;;;;;;3.30;99.90;;;;;;5000542;28;19910;-61
2022/12/06 09:02:30;;;;;;;;;;;3.30;99.90;;;;;;5001183;28;20374;-62
2022/12/06 09:04:56;;;;;;;;;;;3.30;99.90;;;;;;4999991;28;19949;-61
2022/12/06 09:07:22;;;;;;;;;;;3.30;99.90;;;;;;5001767;28;19919;-61
2022/12/06 09:09:48;;;;;;;;;;;3.30;99.90;;;;;;5004754;28;20676;-61
2022/12/06 09:12:13;;;;;;;;;;;3.30;99.90;;;;;;4999674;28;19914;-61
2022/12/06 09:14:39;;;;;;;;;;;3.30;99.90;;;;;;5001243;28;19963;-61
2022/12/06 09:17:04;;;;;;;;;;;3.30;99.90;;;;;;5003148;28;19914;-61
2022/12/06 09:19:30;;;;;;;;;;;3.30;99.90;;;;;;4998628;28;19914;-61
2022/12/06 09:21:55;;;;;;;;;;;3.30;99.90;;;;;;5000230;28;19924;-60
2022/12/06 09:24:21;;;;;;;;;;;3.30;99.90;;;;;;4994640;28;19917;-61
2022/12/06 09:26:47;;;;;;;;;;;3.30;99.90;;;;;;5015625;28;19916;-61
2022/12/06 09:29:13;;;;;;;;;;;3.40;99.90;;;;;;4993740;28;20344;-61
2022/12/06 09:31:39;;;;;;;;;;;3.40;99.90;;;;;;5001796;28;20395;-59
2022/12/06 09:34:06;;;;;;;;;;;3.30;99.90;;;;;;5004431;28;19917;-59
2022/12/06 09:36:31;;;;;;;;;;;3.40;99.90;;;;;;5003289;28;19918;-61
2022/12/06 09:39:09;;;;;;;;;;;3.40;99.90;;;;;;5003498;28;19917;-61
2022/12/06 09:41:38;;;;;;;;;;;3.40;99.90;;;;;;5002753;28;20319;-62
2022/12/06 09:44:15;;;;;;;;;;;3.40;99.90;;;;;;5002928;28;19932;-61
2022/12/06 09:46:41;;;;;;;;;;;3.30;99.90;;;;;;5005830;28;20154;-60
2022/12/06 09:49:26;;;;;;;;;;;3.30;99.90;;;;;;5002383;28;19916;-61
2022/12/06 09:52:07;;;;;;;;;;;3.30;99.90;;;;;;5000057;28;19964;-61
2022/12/06 09:54:54;;;;;;;;;;;3.30;99.90;;;;;;4998243;28;19968;-61
2022/12/06 09:57:22;;;;;;;;;;;3.30;99.90;;;;;;4991573;28;20012;-61
2022/12/06 10:00:03;;;;;;;;;;;3.30;99.90;;;;;;5002272;28;19968;-61
2022/12/06 10:02:47;;;;;;;;;;;3.30;99.90;;;;;;4993925;28;20144;-61
2022/12/06 10:05:12;;;;;;;;;;;3.30;99.90;;;;;;5002950;28;19968;-61
2022/12/06 10:08:00;;;;;;;;;;;3.40;99.90;;;;;;5003778;28;19918;-61
2022/12/06 10:10:33;;;;;;;;;;;3.40;99.90;;;;;;4996756;28;20656;-61
2022/12/06 10:12:59;;;;;;;;;;;3.40;99.90;;;;;;5004408;28;19909;-61
2022/12/06 10:15:50;;;;;;;;;;;3.50;99.90;;;;;;4999925;28;19928;-61
2022/12/06 10:18:26;;;;;;;;;;;3.40;99.90;;;;;;4983983;28;19999;-61
2022/12/06 10:21:02;;;;;;;;;;;3.40;99.90;;;;;;4998953;28;19922;-61
2022/12/06 10:23:46;;;;;;;;;;;3.50;99.90;;;;;;4991490;28;19922;-61
2022/12/06 10:26:13;;;;;;;;;;;3.40;99.90;;;;;;5002719;28;19929;-60
2022/12/06 10:28:42;;;;;;;;;;;3.50;99.90;;;;;;5003451;28;19933;-61
2022/12/06 10:31:25;;;;;;;;;;;3.40;99.90;;;;;;5001204;28;19914;-61
2022/12/06 10:34:04;;;;;;;;;;;3.40;99.90;;;;;;5001291;28;19968;-62
2022/12/06 10:36:37;;;;;;;;;;;3.40;99.90;;;;;;4993297;28;19922;-62
2022/12/06 10:39:13;;;;;;;;;;;3.40;99.90;;;;;;5001536;28;20417;-61
2022/12/06 10:41:43;;;;;;;;;;;3.40;99.90;;;;;;4997748;28;19927;-61
2022/12/06 10:44:18;;;;;;;;;;;3.40;99.90;;;;;;5000619;28;20008;-62
2022/12/06 10:50:01;;;;;;;;;;;3.40;99.90;;;;;;4993375;28;19914;-62
2022/12/06 10:52:44;;;;;;;;;;;3.40;99.90;;;;;;4993287;28;19916;-62
2022/12/06 10:55:10;;;;;;;;;;;3.30;99.90;;;;;;5001051;28;20285;-62
2022/12/06 10:57:42;;;;;;;;;;;3.40;99.90;;;;;;4993876;28;20000;-62
2022/12/06 11:00:14;;;;;;;;;;;3.40;99.90;;;;;;4991092;28;19921;-63
2022/12/06 11:02:44;;;;;;;;;;;3.30;99.90;;;;;;4999307;28;19920;-62
2022/12/06 11:05:30;;;;;;;;;;;3.30;99.90;;;;;;5000683;28;19914;-62
2022/12/06 11:08:05;;;;;;;;;;;3.30;99.90;;;;;;5002367;28;19920;-62
2022/12/06 11:10:32;;;;;;;;;;;3.30;99.90;;;;;;4996520;28;19968;-61
2022/12/06 11:13:08;;;;;;;;;;;3.30;99.90;;;;;;5003194;28;19940;-61
2022/12/06 11:15:35;;;;;;;;;;;3.40;99.90;;;;;;5001223;28;19910;-60
2022/12/06 11:18:11;;;;;;;;;;;3.30;99.90;;;;;;5006096;28;19917;-61
2022/12/06 11:20:38;;;;;;;;;;;3.30;99.90;;;;;;4999006;28;19909;-61
2022/12/06 11:23:22;;;;;;;;;;;3.30;99.90;;;;;;4999407;28;19987;-61
2022/12/06 11:25:57;;;;;;;;;;;3.30;99.90;;;;;;5000576;28;20380;-61
2022/12/06 11:28:23;;;;;;;;;;;3.20;99.90;;;;;;4990971;28;19913;-61
2022/12/06 11:30:50;;;;;;;;;;;3.30;99.90;;;;;;5001644;28;19910;-61
2022/12/06 11:33:16;;;;;;;;;;;3.20;99.90;;;;;;5001607;28;20323;-61
2022/12/06 11:35:44;;;;;;;;;;;3.20;99.90;;;;;;4999995;28;20039;-61
2022/12/06 11:38:11;;;;;;;;;;;3.20;99.90;;;;;;5001404;28;19949;-61
2022/12/06 11:40:39;;;;;;;;;;;3.30;99.90;;;;;;4995234;28;20384;-61
2022/12/06 11:43:06;;;;;;;;;;;3.30;99.90;;;;;;5000691;28;20073;-61
2022/12/06 11:45:33;;;;;;;;;;;3.30;99.90;;;;;;4997492;28;19921;-61
2022/12/06 11:48:01;;;;;;;;;;;3.30;99.90;;;;;;5000640;28;20273;-60
2022/12/06 11:50:31;;;;;;;;;;;3.30;99.90;;;;;;4998364;28;19918;-60
2022/12/06 11:53:06;;;;;;;;;;;3.30;99.90;;;;;;5000804;28;19914;-62
2022/12/06 11:55:38;;;;;;;;;;;3.30;99.90;;;;;;4998569;28;19968;-60
2022/12/06 11:58:10;;;;;;;;;;;3.30;99.90;;;;;;4994504;28;20335;-60
2022/12/06 12:00:37;;;;;;;;;;;3.30;99.90;;;;;;5000156;28;20383;-61
2022/12/06 12:03:02;;;;;;;;;;;3.30;99.90;;;;;;4996136;28;20438;-59
2022/12/06 12:05:37;;;;;;;;;;;3.30;99.90;;;;;;5001687;28;19909;-61
2022/12/06 12:08:06;;;;;;;;;;;3.30;99.90;;;;;;4995487;28;19954;-61
2022/12/06 12:10:34;;;;;;;;;;;3.30;99.90;;;;;;5015255;28;19925;-62
2022/12/06 12:16:00;;;;;;;;;;;3.30;99.90;;;;;;4989992;28;19937;-59
2022/12/06 12:18:31;;;;;;;;;;;3.30;99.90;;;;;;4999178;28;20292;-61
2022/12/06 12:20:58;;;;;;;;;;;3.30;99.90;;;;;;4995040;28;20013;-60
2022/12/06 12:23:28;;;;;;;;;;;3.30;99.90;;;;;;4994104;28;19971;-61
2022/12/06 12:26:10;;;;;;;;;;;3.30;99.90;;;;;;5013385;28;20418;-60
2022/12/06 12:28:37;;;;;;;;;;;3.20;99.90;;;;;;4996467;28;19924;-59
2022/12/06 12:31:15;;;;;;;;;;;3.20;99.90;;;;;;4999604;28;19917;-61
2022/12/06 12:33:40;;;;;;;;;;;3.20;99.90;;;;;;4990252;28;19922;-61
2022/12/06 12:36:05;;;;;;;;;;;3.20;99.90;;;;;;4999145;28;19910;-61
2022/12/06 12:38:40;;;;;;;;;;;3.10;99.90;;;;;;5013236;28;20451;-60
2022/12/06 12:41:26;;;;;;;;;;;3.20;99.90;;;;;;4998227;28;20129;-62
2022/12/06 12:43:55;;;;;;;;;;;3.10;99.90;;;;;;4993558;28;19917;-60
2022/12/06 12:46:21;;;;;;;;;;;3.10;99.90;;;;;;4997634;28;19913;-61
2022/12/06 12:48:47;;;;;;;;;;;3.10;99.90;;;;;;5000022;28;19913;-61
2022/12/06 12:51:19;;;;;;;;;;;3.00;99.90;;;;;;4997812;28;19918;-62
2022/12/06 12:53:45;;;;;;;;;;;3.00;99.90;;;;;;5001137;28;19910;-61
2022/12/06 12:56:12;;;;;;;;;;;3.00;99.90;;;;;;4998424;28;20430;-62
2022/12/06 12:58:38;;;;;;;;;;;2.90;99.90;;;;;;5002127;28;19936;-62
2022/12/06 13:01:17;;;;;;;;;;;2.90;99.90;;;;;;4998505;28;20363;-62
2022/12/06 13:03:43;;;;;;;;;;;2.90;99.90;;;;;;5003406;28;20331;-61
2022/12/06 13:06:18;;;;;;;;;;;2.80;99.90;;;;;;5002573;28;20231;-62
2022/12/06 13:08:44;;;;;;;;;;;2.90;99.90;;;;;;5004828;28;19917;-61
2022/12/06 13:11:09;;;;;;;;;;;2.90;99.90;;;;;;5003782;28;19917;-63
2022/12/06 13:13:39;;;;;;;;;;;2.90;99.90;;;;;;5020885;28;19917;-62
2022/12/06 13:16:09;;;;;;;;;;;2.90;99.90;;;;;;5000999;28;20181;-61
2022/12/06 13:18:41;;;;;;;;;;;2.90;99.90;;;;;;5001350;28;20432;-60
2022/12/06 13:21:15;;;;;;;;;;;2.90;99.90;;;;;;5003270;28;19988;-61
2022/12/06 13:23:42;;;;;;;;;;;3.00;99.90;;;;;;5003860;28;19940;-62
2022/12/06 13:26:17;;;;;;;;;;;2.90;99.90;;;;;;5004395;28;19914;-59
2022/12/06 13:28:45;;;;;;;;;;;3.00;99.90;;;;;;5004221;28;19924;-60
2022/12/06 13:31:13;;;;;;;;;;;2.90;99.90;;;;;;5004181;28;20410;-62
2022/12/06 13:33:42;;;;;;;;;;;2.90;99.90;;;;;;5004625;28;20380;-62
2022/12/06 13:36:09;;;;;;;;;;;2.90;99.90;;;;;;5004066;28;19918;-62
2022/12/06 13:38:36;;;;;;;;;;;2.90;99.90;;;;;;5007429;28;20395;-60
2022/12/06 13:41:05;;;;;;;;;;;2.90;99.90;;;;;;4995196;28;20041;-61
2022/12/06 13:43:31;;;;;;;;;;;2.90;99.90;;;;;;5004198;28;19909;-61
2022/12/06 13:46:05;;;;;;;;;;;2.90;99.90;;;;;;4994706;28;19921;-61
2022/12/06 13:48:53;;;;;;;;;;;2.90;99.90;;;;;;5012017;28;19924;-61
2022/12/06 13:51:31;;;;;;;;;;;2.90;99.90;;;;;;4996411;28;19914;-62
2022/12/06 13:54:03;;;;;;;;;;;2.90;99.90;;;;;;5003270;28;19992;-59
2022/12/06 13:56:31;;;;;;;;;;;2.90;99.90;;;;;;4995650;28;19929;-61
2022/12/06 13:58:58;;;;;;;;;;;2.90;99.90;;;;;;5006853;28;19956;-61
2022/12/06 14:01:53;;;;;;;;;;;2.90;99.90;;;;;;4999732;28;19918;-62
2022/12/06 14:04:28;;;;;;;;;;;2.90;99.90;;;;;;4988226;28;19933;-62
2022/12/06 14:06:53;;;;;;;;;;;2.90;99.90;;;;;;4997808;28;19965;-61
2022/12/06 14:09:19;;;;;;;;;;;2.90;99.90;;;;;;5004115;28;19953;-61
2022/12/06 14:11:45;;;;;;;;;;;2.90;99.90;;;;;;5000078;28;20225;-61
2022/12/06 14:14:36;;;;;;;;;;;2.90;99.90;;;;;;5001713;28;20296;-61
2022/12/06 14:17:10;;;;;;;;;;;3.00;99.90;;;;;;5000200;28;19914;-60
2022/12/06 14:19:42;;;;;;;;;;;3.00;99.90;;;;;;4998891;28;19910;-61
2022/12/06 14:22:16;;;;;;;;;;;3.00;99.90;;;;;;5017970;28;19921;-62
2022/12/06 14:24:52;;;;;;;;;;;3.00;99.90;;;;;;4997315;28;19921;-61
2022/12/06 14:27:20;;;;;;;;;;;3.00;99.90;;;;;;5000547;28;19910;-62
2022/12/06 14:30:00;;;;;;;;;;;3.00;99.90;;;;;;5040928;23;19932;-58
2022/12/06 14:32:43;;;;;;;;;;;3.00;99.90;;;;;;5038560;28;19917;-59
2022/12/06 14:35:17;;;;;;;;;;;3.00;99.90;;;;;;5050637;28;19920;-57
2022/12/06 14:37:47;;;;;;;;;;;3.00;99.90;;;;;;5044450;28;20283;-58
2022/12/06 14:40:20;;;;;;;;;;;3.00;99.90;;;;;;5043300;28;19909;-59
2022/12/06 14:43:01;;;;;;;;;;;3.00;99.90;;;;;;5045119;28;20360;-57
2022/12/06 14:45:28;;;;;;;;;;;3.00;99.90;;;;;;5037853;28;19971;-58
2022/12/06 14:47:54;;;;;;;;;;;3.00;99.90;;;;;;5040267;28;19913;-58
2022/12/06 14:50:22;;;;;;;;;;;3.00;99.90;;;;;;5045638;28;20341;-58
2022/12/06 14:52:54;;;;;;;;;;;3.00;99.90;;;;;;5042993;28;19920;-59
2022/12/06 14:55:19;;;;;;;;;;;3.00;99.90;;;;;;5030984;28;19912;-58
2022/12/06 14:57:46;;;;;;;;;;;3.10;99.90;;;;;;5042002;28;19912;-58
2022/12/06 15:00:17;;;;;;;;;;;3.00;99.90;;;;;;5044443;28;20355;-54
2022/12/06 15:03:04;;;;;;;;;;;3.00;99.90;;;;;;5034724;28;19920;-60
2022/12/06 15:05:30;;;;;;;;;;;3.00;99.90;;;;;;5031354;28;19909;-57
2022/12/06 15:07:55;;;;;;;;;;;3.00;99.90;;;;;;5041924;28;20154;-56
2022/12/06 15:10:22;;;;;;;;;;;3.00;99.90;;;;;;5058354;28;19909;-58
2022/12/06 15:12:54;;;;;;;;;;;3.00;99.90;;;;;;5045813;28;20003;-56